Time;durP1;ratioP1;P1;durP2;ratioP2;P2;SDS_P1;SDS_P2;PMS_P1;PMS_P2;Temp;Humidity;BMP_temperature;BMP_pressure;BME280_temperature;BME280_humidity;BME280_pressure;Samples;Min_cycle;Max_cycle;Signal;HPM_P1;HPM_P2
2022/07/28 00:00:43;;;;;;;13.95;3.10;;;;;;;14.69;79.00;101800.16;5052755;28;20021;-63
2022/07/28 00:03:09;;;;;;;13.65;3.05;;;;;;;14.71;78.43;101801.03;5052870;28;20379;-63
2022/07/28 00:05:34;;;;;;;11.20;3.10;;;;;;;14.64;79.00;101803.69;5052668;28;20025;-63
2022/07/28 00:08:00;;;;;;;11.32;3.00;;;;;;;14.62;78.94;101797.47;5052815;28;20491;-63
2022/07/28 00:10:25;;;;;;;12.82;3.15;;;;;;;14.57;79.22;101807.16;5052741;28;20150;-63
2022/07/28 00:12:50;;;;;;;14.85;3.20;;;;;;;14.52;79.48;101800.97;5052642;28;20104;-63
2022/07/28 00:15:16;;;;;;;11.57;3.03;;;;;;;14.40;79.95;101792.91;5052776;28;20131;-63
2022/07/28 00:17:41;;;;;;;11.13;2.90;;;;;;;14.35;80.18;101794.69;5052857;28;20477;-63
2022/07/28 00:20:07;;;;;;;12.48;3.20;;;;;;;14.28;81.91;101800.00;5048309;28;20552;-63
2022/07/28 00:22:32;;;;;;;13.48;3.30;;;;;;;14.24;81.48;101798.19;5052972;28;20375;-63
2022/07/28 00:24:58;;;;;;;13.35;3.35;;;;;;;14.24;81.57;101811.50;5052467;28;20017;-65
2022/07/28 00:27:23;;;;;;;14.18;3.28;;;;;;;14.26;82.21;101804.41;5052390;28;20029;-64
2022/07/28 00:29:49;;;;;;;12.07;3.25;;;;;;;14.25;81.71;101794.63;5052852;28;20025;-65
2022/07/28 00:32:14;;;;;;;12.80;3.13;;;;;;;14.20;82.22;101798.16;5052449;28;20044;-65
2022/07/28 00:34:39;;;;;;;10.57;3.13;;;;;;;14.17;82.49;101790.16;5052427;28;20060;-65
2022/07/28 00:37:05;;;;;;;12.90;3.20;;;;;;;14.12;82.58;101787.50;5052700;28;20493;-65
2022/07/28 00:39:30;;;;;;;10.93;3.20;;;;;;;14.07;83.10;101791.91;5052590;28;20471;-64
2022/07/28 00:41:55;;;;;;;9.95;3.03;;;;;;;14.02;83.50;101798.97;5052569;28;20464;-64
2022/07/28 00:44:21;;;;;;;12.75;3.33;;;;;;;14.00;84.63;101795.44;5053516;28;20486;-64
2022/07/28 00:46:46;;;;;;;16.00;3.65;;;;;;;13.97;85.03;101795.41;5056229;28;20395;-64
2022/07/28 00:49:15;;;;;;;11.75;3.25;;;;;;;13.93;85.36;101806.00;5056360;28;20025;-63
2022/07/28 00:51:41;;;;;;;14.32;3.40;;;;;;;13.97;85.21;101792.75;5056205;28;20021;-65
2022/07/28 00:54:06;;;;;;;11.55;3.05;;;;;;;13.85;85.91;101790.88;5056200;28;20138;-65
2022/07/28 00:56:32;;;;;;;13.00;3.50;;;;;;;13.84;86.85;101782.03;5056662;28;20033;-65
2022/07/28 00:58:58;;;;;;;11.68;3.15;;;;;;;13.84;87.60;101774.06;5056450;28;20031;-65
2022/07/28 01:01:23;;;;;;;14.45;3.75;;;;;;;13.73;88.11;101778.41;5055859;28;20385;-64
2022/07/28 01:03:58;;;;;;;13.30;3.30;;;;;;;13.65;88.64;101777.50;5056203;28;20021;-65
2022/07/28 01:06:43;;;;;;;12.93;3.30;;;;;;;13.63;88.66;101781.91;5056478;28;20029;-65
2022/07/28 01:09:17;;;;;;;14.57;3.30;;;;;;;13.57;89.77;101781.00;5052192;28;20542;-64
2022/07/28 01:11:51;;;;;;;15.65;3.30;;;;;;;13.46;90.50;101782.69;5052551;28;20021;-64
2022/07/28 01:14:25;;;;;;;13.20;3.40;;;;;;;13.37;92.08;101783.50;5055808;28;20107;-63
2022/07/28 01:17:08;;;;;;;12.95;3.33;;;;;;;13.35;92.33;101779.97;5055739;28;20032;-64
2022/07/28 01:19:42;;;;;;;;;;;;;;;13.41;88.57;101779.09;5056427;28;20082;-65
2022/07/28 01:22:11;;;;;;;14.75;3.33;;;;;;;13.31;93.52;101782.53;5051830;28;19913;-65
2022/07/28 01:24:48;;;;;;;13.32;3.50;;;;;;;13.22;93.82;101775.38;5055891;28;20029;-64
2022/07/28 01:27:50;;;;;;;15.05;3.40;;;;;;;13.18;93.88;101770.94;5052448;28;20116;-65
2022/07/28 01:30:31;;;;;;;10.57;3.60;;;;;;;13.05;95.85;101767.28;5053129;28;20032;-63
2022/07/28 01:33:03;;;;;;;12.75;3.38;;;;;;;12.95;99.59;101779.56;5055762;28;20108;-63
2022/07/28 01:35:40;;;;;;;13.32;3.47;;;;;;;12.95;100.00;101784.00;5055557;28;20025;-65
2022/07/28 01:38:08;;;;;;;13.70;3.45;;;;;;;12.89;100.00;101775.09;5055382;28;20486;-63
2022/07/28 01:40:35;;;;;;;15.98;3.60;;;;;;;12.85;100.00;101773.28;5055336;28;20033;-64
2022/07/28 01:43:06;;;;;;;13.30;3.40;;;;;;;12.80;100.00;101768.78;5055966;28;20108;-63
2022/07/28 01:45:33;;;;;;;15.40;3.72;;;;;;;12.75;100.00;101759.91;5055382;28;20029;-65
2022/07/28 01:48:00;;;;;;;14.82;3.63;;;;;;;12.78;100.00;101755.53;5055396;28;20051;-65
2022/07/28 01:50:28;;;;;;;12.75;3.40;;;;;;;12.66;100.00;101756.28;5055290;28;20017;-65
2022/07/28 01:52:55;;;;;;;12.95;3.40;;;;;;;12.62;100.00;101749.16;5055057;28;20045;-65
2022/07/28 01:55:22;;;;;;;13.60;3.80;;;;;;;12.54;100.00;101765.00;5055112;28;20071;-63
2022/07/28 01:57:50;;;;;;;13.23;3.50;;;;;;;12.52;100.00;101758.81;5055514;28;20025;-65
2022/07/28 02:00:16;;;;;;;14.02;3.75;;;;;;;12.52;100.00;101752.59;5054963;28;20107;-65
2022/07/28 02:02:44;;;;;;;10.90;3.70;;;;;;;12.49;100.00;101748.16;5055158;28;20021;-65
2022/07/28 02:05:13;;;;;;;13.35;3.67;;;;;;;12.47;100.00;101749.03;5051240;28;20111;-65
2022/07/28 02:07:40;;;;;;;13.98;3.85;;;;;;;12.45;100.00;101741.06;5050939;28;20036;-62
2022/07/28 02:10:08;;;;;;;17.33;4.45;;;;;;;12.47;100.00;101744.59;5054722;28;20021;-65
2022/07/28 02:12:36;;;;;;;15.68;3.95;;;;;;;12.40;100.00;101744.53;5055047;28;20032;-63
2022/07/28 02:15:02;;;;;;;14.88;3.88;;;;;;;12.35;100.00;101740.06;5054704;28;20053;-63
2022/07/28 02:17:30;;;;;;;13.63;3.70;;;;;;;12.33;100.00;101746.22;5054447;28;20068;-63
2022/07/28 02:19:57;;;;;;;15.77;3.90;;;;;;;12.31;100.00;101746.19;5054772;28;20025;-63
2022/07/28 02:22:24;;;;;;;13.82;3.90;;;;;;;12.32;100.00;101744.41;5055008;28;20017;-63
2022/07/28 02:24:52;;;;;;;14.82;3.80;;;;;;;12.28;100.00;101739.97;5054690;28;20363;-63
2022/07/28 02:27:21;;;;;;;14.63;3.88;;;;;;;12.29;100.00;101739.09;5054487;28;20033;-63
2022/07/28 02:30:04;;;;;;;13.35;3.50;;;;;;;12.26;100.00;101739.06;5054731;28;20528;-63
2022/07/28 02:32:47;;;;;;;13.80;3.72;;;;;;;12.21;100.00;101741.66;5054487;28;20422;-63
2022/07/28 02:35:21;;;;;;;;;;;;;;;12.19;100.00;101738.09;5052017;28;20059;-63
2022/07/28 02:37:52;;;;;;;13.32;3.80;;;;;;;12.06;100.00;101734.41;5051246;28;19923;-63
2022/07/28 02:40:21;;;;;;;12.20;3.70;;;;;;;12.03;100.00;101742.34;5054235;28;20467;-63
2022/07/28 02:42:48;;;;;;;13.18;3.70;;;;;;;12.02;100.00;101738.78;5054576;28;20037;-63
2022/07/28 02:45:15;;;;;;;14.35;3.80;;;;;;;12.07;100.00;101735.28;5054433;28;20029;-62
2022/07/28 02:48:06;;;;;;;14.38;3.72;;;;;;;12.08;100.00;101742.38;5054061;28;20043;-64
2022/07/28 02:50:31;;;;;;;14.77;3.70;;;;;;;11.97;100.00;101732.53;5041821;28;20393;-63
2022/07/28 02:53:01;;;;;;;13.50;3.70;;;;;;;11.89;100.00;101739.47;5041819;28;20041;-62
2022/07/28 02:55:29;;;;;;;14.18;3.90;;;;;;;11.89;100.00;101738.56;5042176;28;20088;-63
2022/07/28 02:57:56;;;;;;;13.40;4.00;;;;;;;11.84;100.00;101742.06;5041966;28;20025;-62
2022/07/28 03:00:22;;;;;;;13.80;3.65;;;;;;;11.81;100.00;101746.41;5041313;28;20026;-63
2022/07/28 03:02:49;;;;;;;18.00;4.05;;;;;;;11.77;100.00;101739.31;5042934;28;20181;-63
2022/07/28 03:05:15;;;;;;;13.18;3.78;;;;;;;11.72;100.00;101736.56;5040177;28;20036;-63
2022/07/28 03:07:41;;;;;;;13.98;3.85;;;;;;;11.72;100.00;101736.56;5042687;28;20124;-65
2022/07/28 03:10:08;;;;;;;15.02;4.10;;;;;;;11.72;100.00;101730.41;5040125;28;20033;-65
2022/07/28 03:12:34;;;;;;;13.85;4.10;;;;;;;11.66;100.00;101736.50;5042603;28;20041;-65
2022/07/28 03:14:59;;;;;;;13.75;3.80;;;;;;;11.70;100.00;101725.06;5041041;28;20446;-64
2022/07/28 03:17:24;;;;;;;16.25;4.10;;;;;;;11.62;100.00;101732.00;5041549;28;20021;-65
2022/07/28 03:19:49;;;;;;;13.55;4.10;;;;;;;11.57;100.00;101736.38;5042199;28;20104;-64
2022/07/28 03:22:15;;;;;;;17.30;4.32;;;;;;;11.51;100.00;101740.69;5040031;28;20601;-63
2022/07/28 03:24:47;;;;;;;13.82;4.00;;;;;;;11.46;100.00;101745.06;5043120;28;20176;-65
2022/07/28 03:27:24;;;;;;;15.63;4.22;;;;;;;11.40;100.00;101742.31;5040876;28;20490;-65
2022/07/28 03:29:57;;;;;;;16.77;4.43;;;;;;;11.34;100.00;101742.19;5050884;28;20109;-63
2022/07/28 03:32:26;;;;;;;16.75;4.15;;;;;;;11.30;100.00;101740.38;5053346;28;20052;-63
2022/07/28 03:34:51;;;;;;;14.10;4.32;;;;;;;11.26;100.00;101735.91;5053520;28;20488;-64
2022/07/28 03:37:22;;;;;;;16.08;4.40;;;;;;;11.24;100.00;101735.91;5053458;28;20060;-62
2022/07/28 03:39:50;;;;;;;13.57;4.15;;;;;;;11.24;100.00;101748.22;5053395;28;20032;-63
2022/07/28 03:42:18;;;;;;;16.85;4.57;;;;;;;11.21;100.00;101741.13;5053573;28;20382;-62
2022/07/28 03:44:45;;;;;;;14.65;4.57;;;;;;;11.20;100.00;101746.38;5053387;28;20017;-65
2022/07/28 03:47:11;;;;;;;15.98;4.68;;;;;;;11.20;100.00;101741.09;5049226;28;20025;-65
2022/07/28 03:49:37;;;;;;;16.27;4.65;;;;;;;11.15;100.00;101744.59;5053151;28;20032;-66
2022/07/28 03:52:03;;;;;;;15.88;4.47;;;;;;;11.16;100.00;101737.53;5052644;28;20116;-65
2022/07/28 03:54:28;;;;;;;17.55;4.70;;;;;;;11.13;100.00;101743.66;5053260;28;20037;-65
2022/07/28 03:56:53;;;;;;;14.90;4.57;;;;;;;11.11;100.00;101732.16;5053263;28;20021;-64
2022/07/28 03:59:19;;;;;;;17.92;4.57;;;;;;;11.11;100.00;101741.84;5053140;28;20032;-64
2022/07/28 04:01:44;;;;;;;16.50;4.75;;;;;;;11.09;100.00;101733.00;5052958;28;20025;-63
2022/07/28 04:04:10;;;;;;;16.27;4.25;;;;;;;11.10;100.00;101738.31;5053015;28;20391;-65
2022/07/28 04:06:35;;;;;;;14.90;4.25;;;;;;;11.12;100.00;101730.38;5052631;28;20087;-63
2022/07/28 04:09:00;;;;;;;14.55;4.28;;;;;;;11.14;100.00;101732.19;5052786;28;20150;-64
2022/07/28 04:11:26;;;;;;;15.88;4.20;;;;;;;11.16;100.00;101741.03;5052933;28;20031;-68
2022/07/28 04:13:51;;;;;;;15.13;4.20;;;;;;;11.19;100.00;101739.34;5052611;28;20020;-65
2022/07/28 04:16:16;;;;;;;14.75;4.28;;;;;;;11.16;100.00;101734.88;5053037;28;20028;-64
2022/07/28 04:18:42;;;;;;;16.10;4.28;;;;;;;11.18;100.00;101735.78;5052895;28;20021;-65
2022/07/28 04:21:07;;;;;;;15.60;4.30;;;;;;;11.21;100.00;101741.13;5052586;28;20391;-65
2022/07/28 04:23:32;;;;;;;16.45;4.40;;;;;;;11.22;100.00;101729.66;5052633;28;20107;-65
2022/07/28 04:25:58;;;;;;;16.80;4.38;;;;;;;11.25;100.00;101734.13;5052458;28;20059;-65
2022/07/28 04:28:24;;;;;;;13.52;3.90;;;;;;;11.35;100.00;101733.41;5052572;28;20048;-65
2022/07/28 04:30:49;;;;;;;14.95;4.20;;;;;;;11.36;100.00;101732.53;5052616;28;20047;-63
2022/07/28 04:33:14;;;;;;;15.77;4.20;;;;;;;11.40;100.00;101731.72;5052480;28;20029;-63
2022/07/28 04:35:40;;;;;;;17.65;4.25;;;;;;;11.42;100.00;101734.41;5052354;28;20021;-63
2022/07/28 04:38:06;;;;;;;17.70;4.40;;;;;;;11.45;100.00;101731.78;5052531;28;20047;-63
2022/07/28 04:40:33;;;;;;;15.93;4.40;;;;;;;11.44;100.00;101741.47;5052229;28;20017;-63
2022/07/28 04:42:58;;;;;;;14.35;4.15;;;;;;;11.48;100.00;101734.47;5052349;28;20112;-63
2022/07/28 04:45:24;;;;;;;16.92;4.40;;;;;;;11.53;100.00;101730.13;5052404;28;20448;-62
2022/07/28 04:47:50;;;;;;;15.95;4.20;;;;;;;11.57;100.00;101733.72;5052481;28;20029;-63
2022/07/28 04:50:17;;;;;;;17.08;4.47;;;;;;;11.60;100.00;101728.47;5052747;28;20071;-63
2022/07/28 04:52:43;;;;;;;14.80;4.20;;;;;;;11.59;100.00;101730.25;5052429;28;20052;-62
2022/07/28 04:55:08;;;;;;;16.42;4.40;;;;;;;11.61;100.00;101732.91;5052287;28;20490;-62
2022/07/28 04:57:34;;;;;;;16.45;4.40;;;;;;;11.64;100.00;101732.94;5052627;28;20376;-62
2022/07/28 05:00:00;;;;;;;14.48;4.10;;;;;;;11.66;100.00;101729.47;5052483;28;20024;-63
2022/07/28 05:02:26;;;;;;;15.10;4.20;;;;;;;11.73;100.00;101738.34;5052040;28;20426;-63
2022/07/28 05:04:51;;;;;;;17.67;4.38;;;;;;;11.75;100.00;101734.00;5052588;28;20475;-62
2022/07/28 05:07:16;;;;;;;15.93;4.45;;;;;;;11.77;100.00;101739.31;5051885;28;20033;-63
2022/07/28 05:09:42;;;;;;;16.17;4.40;;;;;;;11.82;100.00;101732.28;5052176;28;20047;-63
2022/07/28 05:12:07;;;;;;;16.85;4.40;;;;;;;11.90;100.00;101732.38;5052395;28;20120;-64
2022/07/28 05:14:33;;;;;;;16.30;4.50;;;;;;;11.98;100.00;101733.41;5052192;28;20044;-65
2022/07/28 05:16:58;;;;;;;16.55;4.50;;;;;;;12.07;100.00;101741.47;5051965;28;20109;-64
2022/07/28 05:19:23;;;;;;;15.95;4.15;;;;;;;12.14;100.00;101735.38;5052209;28;20107;-65
2022/07/28 05:21:49;;;;;;;16.05;4.45;;;;;;;12.25;100.00;101745.25;5052056;28;20100;-63
2022/07/28 05:24:14;;;;;;;18.02;5.05;;;;;;;12.37;100.00;101742.72;5051956;28;20032;-65
2022/07/28 05:26:40;;;;;;;17.35;4.43;;;;;;;12.48;100.00;101746.38;5052522;28;20041;-66
2022/07/28 05:29:05;;;;;;;18.75;4.63;;;;;;;12.61;100.00;101747.41;5052177;28;20434;-65
2022/07/28 05:31:31;;;;;;;15.45;4.28;;;;;;;12.71;100.00;101743.06;5054444;28;20029;-65
2022/07/28 05:33:56;;;;;;;17.00;4.70;;;;;;;12.85;100.00;101744.09;5055576;28;20036;-63
2022/07/28 05:36:21;;;;;;;19.60;4.90;;;;;;;12.97;100.00;101745.09;5055527;28;20105;-64
2022/07/28 05:38:47;;;;;;;16.30;4.50;;;;;;;13.06;100.00;101735.44;5055845;28;20424;-65
2022/07/28 05:41:12;;;;;;;17.75;4.70;;;;;;;13.18;100.00;101745.25;5055700;28;20025;-65
2022/07/28 05:43:38;;;;;;;18.85;5.13;;;;;;;13.26;100.00;101740.00;5052860;28;20425;-63
2022/07/28 05:46:04;;;;;;;17.20;5.10;;;;;;;13.34;100.00;101741.00;5054232;28;20017;-64
2022/07/28 05:48:29;;;;;;;18.73;4.55;;;;;;;13.42;100.00;101739.25;5051649;28;20032;-62
2022/07/28 05:50:55;;;;;;;16.20;4.70;;;;;;;13.57;100.00;101738.50;5053317;28;20477;-63
2022/07/28 05:53:20;;;;;;;17.00;4.60;;;;;;;13.67;100.00;101743.84;5053381;28;20091;-64
2022/07/28 05:55:48;;;;;;;16.90;4.80;;;;;;;13.83;100.00;101740.38;5053724;28;20136;-63
2022/07/28 05:58:13;;;;;;;17.00;4.50;;;;;;;13.98;100.00;101744.91;5053225;28;20051;-64
2022/07/28 06:00:39;;;;;;;14.35;4.32;;;;;;;14.12;100.00;101743.22;5052647;28;20487;-63
2022/07/28 06:03:04;;;;;;;16.88;4.68;;;;;;;14.18;100.00;101752.06;5053341;28;20445;-63
2022/07/28 06:05:30;;;;;;;15.85;4.30;;;;;;;14.25;100.00;101756.53;5052754;28;20024;-64
2022/07/28 06:07:57;;;;;;;17.75;4.22;;;;;;;14.32;97.80;101744.16;5053496;28;20025;-63
2022/07/28 06:10:24;;;;;;;15.00;4.30;;;;;;;14.33;96.60;101745.91;5053374;28;20427;-64
2022/07/28 06:12:55;;;;;;;15.90;4.10;;;;;;;14.30;94.63;101742.38;5052512;28;20375;-64
2022/07/28 06:15:24;;;;;;;16.80;4.28;;;;;;;14.21;94.34;101747.66;5053084;28;20025;-64
2022/07/28 06:17:54;;;;;;;14.82;4.07;;;;;;;14.30;94.62;101744.16;5052876;28;20025;-63
2022/07/28 06:20:21;;;;;;;16.77;4.35;;;;;;;14.37;94.60;101743.28;5052259;28;20491;-65
2022/07/28 06:22:48;;;;;;;15.75;4.13;;;;;;;14.46;93.61;101737.09;5053038;28;20032;-68
2022/07/28 06:25:22;;;;;;;17.52;4.15;;;;;;;14.45;93.35;101735.31;5052227;28;20024;-66
2022/07/28 06:27:49;;;;;;;18.13;4.30;;;;;;;14.52;92.40;101736.19;5052740;28;20043;-67
2022/07/28 06:30:16;;;;;;;15.77;4.30;;;;;;;14.58;92.20;101741.56;5052907;28;20104;-64
2022/07/28 06:32:41;;;;;;;14.20;4.32;;;;;;;14.63;91.56;101739.81;5052405;28;20048;-66
2022/07/28 06:35:08;;;;;;;15.82;4.30;;;;;;;14.59;90.32;101745.97;5051690;28;20408;-66
2022/07/28 06:37:33;;;;;;;15.30;4.28;;;;;;;14.63;91.05;101738.06;5052452;28;20036;-67
2022/07/28 06:39:59;;;;;;;15.20;4.05;;;;;;;14.72;89.72;101738.94;5052951;28;20463;-66
2022/07/28 06:42:24;;;;;;;15.55;4.00;;;;;;;14.92;89.91;101742.50;5051075;28;20021;-66
2022/07/28 06:44:52;;;;;;;18.65;4.30;;;;;;;15.11;87.06;101748.72;5052871;28;20028;-67
2022/07/28 06:47:19;;;;;;;15.45;3.90;;;;;;;15.19;85.79;101738.09;5052338;28;20037;-65
2022/07/28 06:49:45;;;;;;;15.90;4.10;;;;;;;15.25;85.76;101740.72;5052183;28;20029;-66
2022/07/28 06:52:11;;;;;;;16.88;4.18;;;;;;;15.27;84.06;101741.59;5051927;28;20052;-65
2022/07/28 06:54:37;;;;;;;17.90;4.03;;;;;;;15.41;84.27;101746.94;5052749;28;20045;-65
2022/07/28 06:57:02;;;;;;;16.65;4.40;;;;;;;15.48;82.71;101747.81;5052435;28;20119;-65
2022/07/28 06:59:28;;;;;;;16.73;4.30;;;;;;;15.51;81.37;101748.69;5052268;28;20454;-64
2022/07/28 07:01:54;;;;;;;17.13;4.40;;;;;;;15.61;81.84;101746.00;5051240;28;20471;-65
2022/07/28 07:04:19;;;;;;;16.33;4.20;;;;;;;15.67;82.37;101743.34;5048548;28;20040;-65
2022/07/28 07:06:44;;;;;;;16.48;4.30;;;;;;;15.76;81.15;101745.97;5051200;28;20479;-65
2022/07/28 07:09:09;;;;;;;14.10;4.32;;;;;;;15.91;79.10;101753.06;5052039;28;20063;-64
2022/07/28 07:11:36;;;;;;;15.10;4.28;;;;;;;15.90;78.39;101751.31;5051200;28;20017;-64
2022/07/28 07:14:01;;;;;;;17.05;4.68;;;;;;;15.95;78.98;101752.16;5051771;28;20115;-66
2022/07/28 07:16:26;;;;;;;14.93;4.20;;;;;;;16.02;77.55;101745.91;5052040;28;20051;-66
2022/07/28 07:18:52;;;;;;;16.80;4.20;;;;;;;16.12;76.81;101744.09;5051909;28;20021;-68
2022/07/28 07:21:18;;;;;;;19.77;4.20;;;;;;;16.31;76.06;101747.56;5047875;28;20055;-66
2022/07/28 07:23:44;;;;;;;15.60;3.92;;;;;;;16.46;74.81;101745.72;5051327;28;20518;-65
2022/07/28 07:26:09;;;;;;;14.65;3.60;;;;;;;16.57;73.10;101746.50;5051169;28;20112;-65
2022/07/28 07:28:34;;;;;;;11.98;3.50;;;;;;;16.63;72.10;101746.50;5051430;28;20108;-65
2022/07/28 07:31:00;;;;;;;15.10;3.30;;;;;;;16.65;71.04;101752.69;5051308;28;20039;-66
2022/07/28 07:33:25;;;;;;;13.18;3.30;;;;;;;16.69;70.66;101740.22;5051431;28;20373;-66
2022/07/28 07:35:51;;;;;;;15.40;3.60;;;;;;;16.74;70.34;101736.59;5051551;28;20032;-69
2022/07/28 07:38:16;;;;;;;14.48;3.45;;;;;;;16.70;70.63;101752.66;5051317;28;20028;-65
2022/07/28 07:40:42;;;;;;;16.20;3.97;;;;;;;16.63;71.12;101740.25;5051163;28;20391;-66
2022/07/28 07:43:07;;;;;;;16.00;3.70;;;;;;;16.50;71.17;101734.13;5051094;28;20039;-65
2022/07/28 07:45:33;;;;;;;13.70;3.60;;;;;;;16.43;70.55;101740.41;5051243;28;20020;-64
2022/07/28 07:47:59;;;;;;;15.75;3.40;;;;;;;16.24;71.17;101739.56;5051012;28;20029;-66
2022/07/28 07:50:24;;;;;;;14.27;3.35;;;;;;;16.18;72.01;101724.53;5050876;28;20025;-64
2022/07/28 07:52:50;;;;;;;14.45;3.42;;;;;;;16.25;71.91;101728.94;5050573;28;20554;-64
2022/07/28 07:55:16;;;;;;;15.20;3.45;;;;;;;16.35;71.91;101733.31;5051280;28;20175;-64
2022/07/28 07:57:41;;;;;;;14.65;3.40;;;;;;;16.44;72.04;101731.47;5050990;28;20035;-64
2022/07/28 08:00:07;;;;;;;15.27;3.30;;;;;;;16.49;70.48;101729.69;5050543;28;20054;-65
2022/07/28 08:02:32;;;;;;;17.25;3.60;;;;;;;16.53;70.46;101739.44;5049955;28;20021;-63
2022/07/28 08:04:59;;;;;;;12.93;3.28;;;;;;;16.57;69.82;101727.81;5051132;28;20076;-62
2022/07/28 08:07:24;;;;;;;14.45;3.20;;;;;;;16.76;70.28;101730.38;5051031;28;20087;-63
2022/07/28 08:09:50;;;;;;;16.35;3.20;;;;;;;16.95;71.10;101729.38;5051180;28;20021;-64
2022/07/28 08:12:15;;;;;;;17.50;3.50;;;;;;;17.03;68.74;101716.84;5051500;28;20033;-65
2022/07/28 08:14:40;;;;;;;13.88;3.00;;;;;;;17.21;70.28;101718.47;5052736;28;20382;-63
2022/07/28 08:17:06;;;;;;;10.40;2.88;;;;;;;17.29;67.36;101725.53;5048515;28;20028;-65
2022/07/28 08:19:31;;;;;;;9.80;2.90;;;;;;;17.25;65.47;101720.19;5046470;28;20087;-63
2022/07/28 08:21:56;;;;;;;11.75;3.13;;;;;;;17.30;66.37;101725.50;5047572;28;20045;-63
2022/07/28 08:24:22;;;;;;;13.15;3.00;;;;;;;17.36;64.96;101724.56;5049067;28;20031;-63
2022/07/28 08:26:47;;;;;;;12.15;3.00;;;;;;;17.48;64.15;101724.44;5049634;28;20471;-63
2022/07/28 08:29:13;;;;;;;10.30;2.90;;;;;;;17.56;63.88;101719.00;5050895;28;20056;-64
2022/07/28 08:31:38;;;;;;;13.40;3.03;;;;;;;17.72;63.90;101722.38;5050295;28;20032;-64
2022/07/28 08:34:03;;;;;;;10.68;2.92;;;;;;;17.84;63.17;101727.59;5051020;28;20079;-64
2022/07/28 08:36:30;;;;;;;13.70;3.03;;;;;;;17.92;61.81;101724.84;5050529;28;20032;-63
2022/07/28 08:38:56;;;;;;;10.77;3.00;;;;;;;18.05;62.70;101726.47;5050608;28;20341;-63
2022/07/28 08:41:31;;;;;;;13.02;3.20;;;;;;;18.25;60.28;101722.66;5050274;28;20395;-63
2022/07/28 08:43:58;;;;;;;14.52;3.20;;;;;;;18.55;61.36;101715.09;5047237;28;20095;-64
2022/07/28 08:46:24;;;;;;;13.90;2.92;;;;;;;18.87;59.89;101716.41;5050010;28;20029;-63
2022/07/28 08:48:50;;;;;;;12.25;2.90;;;;;;;19.04;58.04;101711.66;5050643;28;20039;-64
2022/07/28 08:51:17;;;;;;;11.50;2.83;;;;;;;19.09;56.38;101722.28;5050366;28;20489;-63
2022/07/28 08:53:43;;;;;;;13.30;2.70;;;;;;;19.20;56.65;101711.38;5049839;28;20037;-64
2022/07/28 08:56:14;;;;;;;15.77;2.90;;;;;;;19.36;55.73;101718.22;5049968;28;20047;-64
2022/07/28 08:58:40;;;;;;;15.65;3.20;;;;;;;19.48;54.63;101717.09;5047143;28;20029;-64
2022/07/28 09:01:07;;;;;;;11.52;2.90;;;;;;;19.56;55.03;101716.97;5050417;28;20486;-63
2022/07/28 09:03:33;;;;;;;13.75;3.20;;;;;;;19.71;54.21;101727.41;5050756;28;20032;-64
2022/07/28 09:05:58;;;;;;;13.63;3.08;;;;;;;19.80;54.36;101710.25;5051628;28;20029;-63
2022/07/28 09:08:24;;;;;;;13.65;3.00;;;;;;;19.85;53.10;101706.56;5053484;28;20178;-63
2022/07/28 09:10:49;;;;;;;15.05;3.10;;;;;;;20.01;53.41;101698.22;5054122;28;20021;-62
2022/07/28 09:13:16;;;;;;;13.65;3.20;;;;;;;20.14;52.60;101699.72;5054462;28;20106;-62
2022/07/28 09:15:44;;;;;;;16.77;3.03;;;;;;;20.36;52.40;101693.84;5053821;28;20505;-63
2022/07/28 09:18:10;;;;;;;12.70;2.97;;;;;;;20.51;51.66;101682.75;5054177;28;20064;-63
2022/07/28 09:20:36;;;;;;;11.13;2.80;;;;;;;20.67;52.83;101682.41;5053743;28;20068;-62
2022/07/28 09:23:05;;;;;;;15.40;3.35;;;;;;;20.74;50.70;101686.72;5053928;28;20072;-63
2022/07/28 09:25:31;;;;;;;13.02;3.15;;;;;;;20.84;50.40;101682.00;5053872;28;20049;-63
2022/07/28 09:28:14;;;;;;;13.55;3.15;;;;;;;20.93;50.83;101676.38;5054337;28;20487;-63
2022/07/28 09:30:41;;;;;;;;;;;;;;;21.09;50.91;101668.78;5053344;28;20025;-62
2022/07/28 09:33:25;;;;;;;16.98;3.20;;;;;;;21.16;51.02;101669.50;5054016;28;20404;-62
2022/07/28 09:35:55;;;;;;;15.13;2.90;;;;;;;21.41;49.56;101669.72;5055847;28;20032;-62
2022/07/28 09:38:22;;;;;;;15.80;3.30;;;;;;;21.54;48.81;101659.53;5055423;28;20490;-62
2022/07/28 09:41:17;;;;;;;12.68;3.10;;;;;;;21.90;49.43;101652.19;5055671;28;20061;-62
2022/07/28 09:43:44;;;;;;;14.35;3.03;;;;;;;21.98;45.94;101643.00;5052830;28;20119;-62
2022/07/28 09:46:17;;;;;;;12.70;2.90;;;;;;;22.06;46.88;101644.53;5055786;28;20031;-62
2022/07/28 09:48:48;;;;;;;12.57;2.78;;;;;;;22.08;46.91;101639.97;5055243;28;20032;-64
2022/07/28 09:51:17;;;;;;;11.75;2.60;;;;;;;22.46;43.84;101650.47;5055079;28;20472;-63
2022/07/28 09:53:43;;;;;;;10.60;2.78;;;;;;;23.17;42.55;101650.78;5055032;28;20045;-62
2022/07/28 09:56:09;;;;;;;11.43;2.83;;;;;;;24.05;40.22;101655.63;5055297;28;20021;-62
2022/07/28 09:58:35;;;;;;;11.38;2.78;;;;;;;24.91;38.83;101656.63;5055437;28;20093;-62
2022/07/28 10:01:10;;;;;;;11.38;2.70;;;;;;;26.39;37.05;101649.88;5055244;28;20100;-63
2022/07/28 10:03:37;;;;;;;10.57;2.60;;;;;;;27.02;34.09;101645.81;5047132;28;20044;-66
2022/07/28 10:06:06;;;;;;;12.13;2.83;;;;;;;26.76;34.06;101653.44;5052736;28;20099;-66
2022/07/28 10:08:45;;;;;;;12.30;2.65;;;;;;;27.59;34.43;101647.34;5050400;28;20041;-63
2022/07/28 10:11:13;;;;;;;9.60;2.53;;;;;;;28.66;31.55;101653.13;5052031;28;20100;-63
2022/07/28 10:14:03;;;;;;;7.35;2.50;;;;;;;28.90;31.78;101644.44;5049453;28;20029;-62
2022/07/28 10:16:31;;;;;;;11.35;2.50;;;;;;;28.89;30.53;101656.28;5051843;28;20071;-68
2022/07/28 10:18:59;;;;;;;14.82;2.55;;;;;;;29.28;29.81;101661.16;5052694;28;20025;-65
2022/07/28 10:21:26;;;;;;;9.95;2.47;;;;;;;29.13;29.02;101651.19;5050795;28;20120;-66
2022/07/28 10:23:54;;;;;;;11.98;2.50;;;;;;;29.22;28.96;101653.38;5052517;28;20033;-67
2022/07/28 10:26:27;;;;;;;10.20;2.40;;;;;;;29.21;28.54;101647.03;5047963;28;20060;-64
2022/07/28 10:28:53;;;;;;;11.13;2.60;;;;;;;29.70;28.61;101643.09;5051356;28;21013;-62
2022/07/28 10:31:40;;;;;;;12.55;2.70;;;;;;;30.27;29.25;101643.13;5052803;28;20043;-66
2022/07/28 10:34:09;;;;;;;6.88;2.60;;;;;;;30.17;27.90;101648.28;5053190;28;20043;-65
2022/07/28 10:36:34;;;;;;;8.73;2.40;;;;;;;30.59;26.72;101639.09;5052949;28;20694;-63
2022/07/28 10:39:11;;;;;;;8.23;2.40;;;;;;;31.26;26.41;101648.22;5052575;28;20028;-64
2022/07/28 10:41:40;;;;;;;11.25;2.50;;;;;;;30.86;26.64;101638.22;5052088;28;20086;-63
2022/07/28 10:44:08;;;;;;;8.20;2.40;;;;;;;31.25;25.60;101646.44;5052591;28;20043;-67
2022/07/28 10:46:35;;;;;;;8.80;2.40;;;;;;;31.76;25.91;101642.84;5054794;28;20028;-63
2022/07/28 10:49:00;;;;;;;9.32;2.40;;;;;;;31.70;25.44;101633.22;5054411;28;20520;-64
2022/07/28 10:51:27;;;;;;;10.27;2.60;;;;;;;31.77;24.81;101644.59;5054548;28;20033;-64
2022/07/28 10:54:00;;;;;;;7.30;2.30;;;;;;;31.93;24.68;101631.53;5051040;28;20127;-67
2022/07/28 10:56:32;;;;;;;11.07;2.55;;;;;;;31.94;25.74;101635.16;5052217;28;20025;-67
2022/07/28 10:59:22;;;;;;;9.95;2.53;;;;;;;32.36;25.67;101632.06;5051967;28;20035;-66
2022/07/28 11:01:47;;;;;;;10.82;2.30;;;;;;;32.56;23.92;101625.06;5050768;28;20033;-66
2022/07/28 11:04:51;;;;;;;11.18;2.35;;;;;;;32.73;24.79;101621.09;5051875;28;20376;-66
2022/07/28 11:07:17;;;;;;;11.40;2.67;;;;;;;32.92;23.50;101624.13;5050315;28;20068;-66
2022/07/28 11:09:46;;;;;;;9.45;2.22;;;;;;;33.09;23.44;101632.88;5052003;28;20025;-67
2022/07/28 11:12:14;;;;;;;9.57;2.22;;;;;;;32.94;23.66;101624.88;5052073;28;20371;-66
2022/07/28 11:14:40;;;;;;;9.82;2.40;;;;;;;33.67;22.84;101627.31;5051784;28;20052;-66
2022/07/28 11:17:05;;;;;;;8.02;2.20;;;;;;;34.25;22.40;101618.88;5051822;28;20387;-66